Argenta, Illinois
Current Conditions -  °F | °C
As of 3:54 AM on Friday 28 Nov 2014 (Local Time) from KDEC Reporting Station
Few Clouds Few Clouds  
Wind Chill: -12°   Ceiling: Unl
Heat Index: -8°   Visibility: 10mi
Dew Point: -12°   Wind: 6mph
Humidity: 71%   Direction: 160°SSE
Pressure: 30.37"   Gusts: NA
Location:  39.98°N, 88.82°W
Report Text: KDEC 280954Z AUTO 16005KT 10SM FEW065 M08/M12 A3037 RMK AO2 SLP294 T10781122 TSNO
Loading
Personal Weather Stations






























Interactive Weather Map New forecast layout! Learn more

10-Day Weather Forecast

Advertisements
Track Severe Weather on mobile